Time;durP1;ratioP1;P1;durP2;ratioP2;P2;SDS_P1;SDS_P2;PMS_P1;PMS_P2;Temp;Humidity;BMP_temperature;BMP_pressure;BME280_temperature;BME280_humidity;BME280_pressure;Samples;Min_cycle;Max_cycle;Signal;HPM_P1;HPM_P2
2022/07/20 00:07:18;;;;;;;4.9;7.7;;;;;;;16.3;100;99000;;;;
2022/07/20 00:17:18;;;;;;;4.9;7.7;;;;;;;16.1;100;98990;;;;
2022/07/20 00:28:18;;;;;;;4.9;7.7;;;;;;;16;100;98990;;;;
2022/07/20 00:39:18;;;;;;;5.8;11.3;;;;;;;15.8;100;98980;;;;
2022/07/20 00:50:18;;;;;;;5.8;11.3;;;;;;;15.7;100;98990;;;;
2022/07/20 01:00:18;;;;;;;5.8;11.3;;;;;;;15.6;100;98990;;;;
2022/07/20 01:10:19;;;;;;;5;8.1;;;;;;;15.5;100;98990;;;;
2022/07/20 01:21:18;;;;;;;5;8.1;;;;;;;15.4;100;98980;;;;
2022/07/20 01:31:18;;;;;;;5;8.1;;;;;;;15.3;100;98990;;;;
2022/07/20 01:41:18;;;;;;;4.9;9.3;;;;;;;15.2;100;98990;;;;
2022/07/20 01:52:18;;;;;;;4.9;9.3;;;;;;;15.1;100;98990;;;;
2022/07/20 02:03:18;;;;;;;4.9;9.3;;;;;;;15;100;98990;;;;
2022/07/20 02:13:18;;;;;;;5.8;9.4;;;;;;;14.8;100;99000;;;;
2022/07/20 02:24:18;;;;;;;5.8;9.4;;;;;;;14.7;100;99000;;;;
2022/07/20 02:34:18;;;;;;;5.8;9.4;;;;;;;14.7;100;99000;;;;
2022/07/20 02:44:18;;;;;;;4.9;6.8;;;;;;;14.6;100;99000;;;;
2022/07/20 02:55:18;;;;;;;4.9;6.8;;;;;;;14.6;100;99000;;;;
2022/07/20 03:06:20;;;;;;;4.9;6.8;;;;;;;14.6;100;99000;;;;
2022/07/20 03:17:18;;;;;;;5.1;11.5;;;;;;;14.7;100;99000;;;;
2022/07/20 03:27:18;;;;;;;5.1;11.5;;;;;;;14.8;100;99010;;;;
2022/07/20 03:38:18;;;;;;;5.4;10.3;;;;;;;15;100;99020;;;;
2022/07/20 03:48:18;;;;;;;5.4;10.3;;;;;;;15.1;100;99020;;;;
2022/07/20 03:59:18;;;;;;;5.4;10.3;;;;;;;15.4;100;99030;;;;
2022/07/20 04:09:43;;;;;;;7.3;11.8;;;;;;;15.6;100;99030;;;;
2022/07/20 04:19:18;;;;;;;7.3;11.8;;;;;;;16;100;99040;;;;
2022/07/20 04:30:18;;;;;;;7.3;11.8;;;;;;;16.4;100;99050;;;;
2022/07/20 04:41:18;;;;;;;6.9;10.4;;;;;;;17;100;99050;;;;
2022/07/20 04:51:18;;;;;;;6.9;10.4;;;;;;;17.5;100;99050;;;;
2022/07/20 05:02:18;;;;;;;6.9;10.4;;;;;;;18.1;100;99060;;;;
2022/07/20 05:13:18;;;;;;;5.9;9.2;;;;;;;18.7;100;99060;;;;
2022/07/20 05:24:18;;;;;;;5.9;9.2;;;;;;;19.3;100;99070;;;;
2022/07/20 05:34:18;;;;;;;5.9;9.2;;;;;;;19.8;100;99080;;;;
2022/07/20 05:45:18;;;;;;;4.5;9;;;;;;;20.2;100;99080;;;;
2022/07/20 05:55:18;;;;;;;4.5;9;;;;;;;20.8;100;99080;;;;
2022/07/20 06:06:18;;;;;;;4.9;9.3;;;;;;;21.3;100;99090;;;;
2022/07/20 06:17:18;;;;;;;4.9;9.3;;;;;;;21.9;100;99100;;;;
2022/07/20 06:28:18;;;;;;;4.9;9.3;;;;;;;22.4;100;99110;;;;
2022/07/20 06:39:18;;;;;;;3.8;6.8;;;;;;;22.9;100;99110;;;;
2022/07/20 06:49:18;;;;;;;3.8;6.8;;;;;;;23.3;100;99120;;;;
2022/07/20 07:00:18;;;;;;;3.8;6.8;;;;;;;23.8;100;99120;;;;
2022/07/20 07:10:18;;;;;;;3.8;6;;;;;;;24.2;100;99120;;;;
2022/07/20 07:21:18;;;;;;;3.8;6;;;;;;;24.7;100;99110;;;;
2022/07/20 07:32:18;;;;;;;3.8;6;;;;;;;25.2;100;99110;;;;
2022/07/20 07:42:18;;;;;;;3;6;;;;;;;25.6;100;99120;;;;
2022/07/20 07:53:18;;;;;;;3;6;;;;;;;26.1;100;99130;;;;
2022/07/20 08:04:18;;;;;;;3;6;;;;;;;26.5;92.5;99120;;;;
2022/07/20 08:14:18;;;;;;;3.5;7.6;;;;;;;27;92.7;99130;;;;
2022/07/20 08:25:18;;;;;;;3.5;7.6;;;;;;;27.3;86;99120;;;;
2022/07/20 08:36:18;;;;;;;3.5;7.6;;;;;;;27.8;85.3;99120;;;;
2022/07/20 08:46:18;;;;;;;2.7;6;;;;;;;27.7;84;99120;;;;
2022/07/20 08:57:18;;;;;;;2.7;6;;;;;;;27.9;83.6;99120;;;;
2022/07/20 09:08:18;;;;;;;2.9;6.2;;;;;;;28.5;78.3;99110;;;;
2022/07/20 09:18:18;;;;;;;2.9;6.2;;;;;;;28.9;74;99110;;;;
2022/07/20 09:28:18;;;;;;;2.9;6.2;;;;;;;29.1;69.3;99100;;;;
2022/07/20 09:39:18;;;;;;;2.6;6.5;;;;;;;29.2;66.7;99100;;;;
2022/07/20 09:50:18;;;;;;;2.6;6.5;;;;;;;29.2;62.7;99090;;;;
2022/07/20 10:01:18;;;;;;;2.6;6.5;;;;;;;29.4;62.6;99090;;;;
2022/07/20 10:12:18;;;;;;;3.2;6.3;;;;;;;29.8;59.4;99090;;;;
2022/07/20 10:23:18;;;;;;;3.2;6.3;;;;;;;29.8;55.5;99080;;;;
2022/07/20 10:33:18;;;;;;;3.2;6.3;;;;;;;29.8;57.2;99070;;;;
2022/07/20 10:44:18;;;;;;;2.9;7.6;;;;;;;30;56.5;99070;;;;
2022/07/20 10:55:20;;;;;;;2.9;7.6;;;;;;;30.4;57.8;99070;;;;
2022/07/20 11:05:18;;;;;;;2.9;7.6;;;;;;;30.6;54.7;99060;;;;
2022/07/20 11:15:18;;;;;;;2.9;5.7;;;;;;;30.9;55.7;99060;;;;
2022/07/20 11:26:18;;;;;;;2.9;5.7;;;;;;;30.8;54.8;99050;;;;
2022/07/20 11:37:18;;;;;;;3.3;6.8;;;;;;;31.3;57.2;99050;;;;
2022/07/20 11:47:18;;;;;;;3.3;6.8;;;;;;;31.4;52.8;99050;;;;
2022/07/20 11:58:19;;;;;;;3.3;6.8;;;;;;;31.1;54.5;99040;;;;
2022/07/20 12:09:18;;;;;;;2.7;6;;;;;;;31.5;53.6;99030;;;;
2022/07/20 12:19:18;;;;;;;2.7;6;;;;;;;31.6;51.9;99030;;;;
2022/07/20 12:29:19;;;;;;;2.7;6;;;;;;;31.7;55.8;99020;;;;
2022/07/20 12:39:18;;;;;;;3;5.4;;;;;;;31.7;54;99010;;;;
2022/07/20 12:50:18;;;;;;;3;5.4;;;;;;;31.8;56.8;99010;;;;
2022/07/20 13:00:18;;;;;;;3;5.4;;;;;;;32.1;56.6;99010;;;;
2022/07/20 13:11:18;;;;;;;3.8;7.2;;;;;;;32;52.5;99010;;;;
2022/07/20 13:21:18;;;;;;;3.8;7.2;;;;;;;32.5;51.3;99000;;;;
2022/07/20 13:32:18;;;;;;;3.8;7.2;;;;;;;32.8;51.1;99000;;;;
2022/07/20 13:43:18;;;;;;;3.2;6.1;;;;;;;32.5;51.6;98990;;;;
2022/07/20 13:54:18;;;;;;;3.2;6.1;;;;;;;32.8;51.2;98980;;;;
2022/07/20 14:05:18;;;;;;;3.2;6.1;;;;;;;33.3;51.3;98950;;;;
2022/07/20 14:15:18;;;;;;;3.3;6.9;;;;;;;33.4;52.5;98950;;;;
2022/07/20 14:25:18;;;;;;;3.3;6.9;;;;;;;33.8;48.9;98950;;;;
2022/07/20 14:36:18;;;;;;;3.3;6.9;;;;;;;34;54.3;98940;;;;
2022/07/20 14:46:18;;;;;;;4;7.9;;;;;;;34.3;51.1;98940;;;;
2022/07/20 14:57:18;;;;;;;4;7.9;;;;;;;34.5;49.6;98930;;;;
2022/07/20 15:08:19;;;;;;;9.3;31.6;;;;;;;34.8;51.7;98920;;;;
2022/07/20 15:18:18;;;;;;;9.3;31.6;;;;;;;38.2;43.3;98920;;;;
2022/07/20 15:28:18;;;;;;;9.3;31.6;;;;;;;39.7;41.2;98920;;;;
2022/07/20 15:38:18;;;;;;;3.5;6.1;;;;;;;41;37.6;98920;;;;
2022/07/20 15:49:18;;;;;;;3.5;6.1;;;;;;;42;35.5;98910;;;;
2022/07/20 15:59:18;;;;;;;3.5;6.1;;;;;;;42.8;34.8;98910;;;;
2022/07/20 16:09:19;;;;;;;3.3;6.6;;;;;;;42.4;32.1;98910;;;;
2022/07/20 16:20:19;;;;;;;3.3;6.6;;;;;;;42.8;31.1;98910;;;;
2022/07/20 16:30:18;;;;;;;3.3;6.6;;;;;;;41.9;32.5;98900;;;;
2022/07/20 16:41:18;;;;;;;3;7.3;;;;;;;41.6;33;98900;;;;
2022/07/20 16:52:18;;;;;;;3;7.3;;;;;;;41.4;33.3;98910;;;;
2022/07/20 17:03:18;;;;;;;3;7.3;;;;;;;41.4;38.1;98900;;;;
2022/07/20 17:13:18;;;;;;;3.2;6.5;;;;;;;41.8;35.9;98900;;;;
2022/07/20 17:24:18;;;;;;;3.2;6.5;;;;;;;37.4;39.7;98880;;;;
2022/07/20 17:34:18;;;;;;;3.2;6.5;;;;;;;35.3;43.6;98870;;;;
2022/07/20 17:45:18;;;;;;;3.5;7.8;;;;;;;33.3;49.3;98850;;;;
2022/07/20 17:56:18;;;;;;;3.5;7.8;;;;;;;33.5;50.9;98860;;;;
2022/07/20 18:07:18;;;;;;;3.5;7.8;;;;;;;31.6;55.7;98850;;;;
2022/07/20 18:18:18;;;;;;;4.7;8.8;;;;;;;29.7;68.2;98840;;;;
2022/07/20 18:28:18;;;;;;;4.7;8.8;;;;;;;28.5;74.8;98840;;;;
2022/07/20 18:39:18;;;;;;;10.5;20.4;;;;;;;27.4;77;98840;;;;
2022/07/20 18:50:18;;;;;;;10.5;20.4;;;;;;;26.2;81.7;98840;;;;
2022/07/20 19:01:18;;;;;;;10.5;20.4;;;;;;;25.5;82.8;98850;;;;
2022/07/20 19:12:18;;;;;;;7.3;12.5;;;;;;;24.9;85.7;98850;;;;
2022/07/20 19:22:18;;;;;;;7.3;12.5;;;;;;;24.5;86.5;98860;;;;
2022/07/20 19:32:18;;;;;;;7.3;12.5;;;;;;;24;87.1;98870;;;;
2022/07/20 19:43:18;;;;;;;18.8;28;;;;;;;23.7;89.2;98870;;;;
2022/07/20 19:54:18;;;;;;;18.8;28;;;;;;;23.3;89.6;98850;;;;
2022/07/20 20:04:18;;;;;;;18.8;28;;;;;;;23.1;88.8;98870;;;;
2022/07/20 20:15:18;;;;;;;8.1;14.4;;;;;;;22.7;87.8;98870;;;;
2022/07/20 20:25:18;;;;;;;8.1;14.4;;;;;;;22.4;88.6;98860;;;;
2022/07/20 20:36:18;;;;;;;8.1;14.4;;;;;;;22;95.2;98860;;;;
2022/07/20 20:47:18;;;;;;;15.5;19.6;;;;;;;21.6;99.1;98860;;;;
2022/07/20 20:57:18;;;;;;;15.5;19.6;;;;;;;21.3;100;98860;;;;
2022/07/20 21:08:18;;;;;;;15.5;19.6;;;;;;;21;100;98860;;;;
2022/07/20 21:19:18;;;;;;;6.9;10.3;;;;;;;20.7;100;98860;;;;
2022/07/20 21:30:18;;;;;;;6.9;10.3;;;;;;;20.4;100;98860;;;;
2022/07/20 21:40:18;;;;;;;6.2;9.5;;;;;;;20.2;100;98870;;;;
2022/07/20 21:50:18;;;;;;;6.2;9.5;;;;;;;20.1;100;98870;;;;
2022/07/20 22:01:18;;;;;;;6.2;9.5;;;;;;;19.9;100;98870;;;;
2022/07/20 22:11:18;;;;;;;4.7;8.1;;;;;;;19.6;100;98860;;;;
2022/07/20 22:22:18;;;;;;;4.7;8.1;;;;;;;19.4;100;98870;;;;
2022/07/20 22:32:18;;;;;;;4.7;8.1;;;;;;;19.2;100;98870;;;;
2022/07/20 22:43:18;;;;;;;5.3;8.7;;;;;;;18.9;100;98860;;;;
2022/07/20 22:53:20;;;;;;;5.3;8.7;;;;;;;18.7;100;98860;;;;
2022/07/20 23:03:18;;;;;;;5.3;8.7;;;;;;;18.5;100;98880;;;;
2022/07/20 23:13:18;;;;;;;7;9.9;;;;;;;18.4;100;98870;;;;
2022/07/20 23:24:18;;;;;;;7;9.9;;;;;;;18.2;100;98880;;;;
2022/07/20 23:34:18;;;;;;;7;9.9;;;;;;;18;100;98870;;;;
2022/07/20 23:44:18;;;;;;;7;10.4;;;;;;;17.9;100;98870;;;;
2022/07/20 23:55:18;;;;;;;7;10.4;;;;;;;17.7;100;98860;;;;
